createdAt,value
2017-06-09T00:00:55.559Z,23.35
2017-06-09T00:02:05.485Z,23.39
2017-06-09T00:03:15.113Z,23.36
2017-06-09T00:04:25.026Z,23.42
2017-06-09T00:05:35.260Z,23.38
2017-06-09T00:06:45.483Z,23.39
2017-06-09T00:07:55.097Z,23.2
2017-06-09T00:09:05.046Z,23.27
2017-06-09T00:10:14.964Z,23.31
2017-06-09T00:11:25.106Z,23.28
2017-06-09T00:12:35.334Z,23.27
2017-06-09T00:13:44.952Z,23.28
2017-06-09T00:14:55.195Z,23.23
2017-06-09T00:16:04.518Z,23.16
2017-06-09T00:17:14.794Z,23.23
2017-06-09T00:18:25.042Z,23.17
2017-06-09T00:19:35.266Z,23.22
2017-06-09T00:20:44.577Z,23.23
2017-06-09T00:21:53.881Z,23.13
2017-06-09T00:23:03.798Z,23.19
2017-06-09T00:24:12.792Z,23.16
2017-06-09T00:25:22.712Z,23.2
2017-06-09T00:26:32.628Z,23.2
2017-06-09T00:27:42.244Z,23.13
2017-06-09T00:28:51.857Z,23.17
2017-06-09T00:30:02.176Z,23.1
2017-06-09T00:31:12.099Z,23.16
2017-06-09T00:32:21.703Z,23.13
2017-06-09T00:33:31.640Z,23.05
2017-06-09T00:34:41.871Z,23.1
2017-06-09T00:35:51.787Z,23.13
2017-06-09T00:37:01.713Z,23.13
2017-06-09T00:38:11.323Z,23.16
2017-06-09T00:39:21.559Z,23
2017-06-09T00:40:30.876Z,23.01
2017-06-09T00:41:40.801Z,23.01
2017-06-09T00:42:51.055Z,23.01
2017-06-09T00:44:00.987Z,23.07
2017-06-09T00:45:10.605Z,23.1
2017-06-09T00:46:20.520Z,23.09
2017-06-09T00:47:30.746Z,22.98
2017-06-09T00:48:41.011Z,23.01
2017-06-09T00:49:51.242Z,22.98
2017-06-09T00:51:01.173Z,22.98
2017-06-09T00:52:11.081Z,22.97
2017-06-09T00:53:20.999Z,22.92
2017-06-09T00:54:30.612Z,22.88
2017-06-09T00:55:40.536Z,22.92
2017-06-09T00:56:50.760Z,22.86
2017-06-09T00:58:00.683Z,22.83
2017-06-09T00:59:09.990Z,22.88
2017-06-09T01:00:19.609Z,22.88
2017-06-09T01:01:29.218Z,22.79
2017-06-09T01:02:39.133Z,22.83
2017-06-09T01:03:49.044Z,22.83
2017-06-09T01:04:58.959Z,22.83
2017-06-09T01:06:09.215Z,22.82
2017-06-09T01:07:19.135Z,22.79
2017-06-09T01:08:29.361Z,22.76
2017-06-09T01:09:39.293Z,22.76
2017-06-09T01:10:48.597Z,22.76
2017-06-09T01:11:58.521Z,22.83
2017-06-09T01:13:08.438Z,22.77
2017-06-09T01:14:17.741Z,22.79
2017-06-09T01:15:27.989Z,22.75
2017-06-09T01:16:38.230Z,22.79
2017-06-09T01:17:48.452Z,22.75
2017-06-09T01:18:58.061Z,22.73
2017-06-09T01:20:07.683Z,22.73
2017-06-09T01:21:17.616Z,22.79
2017-06-09T01:22:26.914Z,22.7
2017-06-09T01:23:36.875Z,22.65
2017-06-09T01:24:46.497Z,22.7
2017-06-09T01:25:56.419Z,22.75
2017-06-09T01:27:06.644Z,22.64
2017-06-09T01:28:16.274Z,22.7
2017-06-09T01:29:26.498Z,22.75
2017-06-09T01:30:35.812Z,22.73
2017-06-09T01:31:45.743Z,22.67
2017-06-09T01:32:55.352Z,22.73
2017-06-09T01:34:04.656Z,22.67
2017-06-09T01:35:14.579Z,22.57
2017-06-09T01:36:24.507Z,22.65
2017-06-09T01:37:34.433Z,22.58
2017-06-09T01:38:44.350Z,22.57
2017-06-09T01:39:53.654Z,22.57
2017-06-09T01:41:03.578Z,22.57
2017-06-09T01:42:13.499Z,22.61
2017-06-09T01:43:23.418Z,22.6
2017-06-09T01:44:33.671Z,22.6
2017-06-09T01:45:42.980Z,22.65
2017-06-09T01:46:52.611Z,22.67
2017-06-09T01:48:02.843Z,22.55
2017-06-09T01:49:12.763Z,22.55
2017-06-09T01:50:22.188Z,22.62
2017-06-09T01:51:32.440Z,22.58
2017-06-09T01:52:42.690Z,22.6
2017-06-09T01:53:52.921Z,22.65
2017-06-09T01:55:02.530Z,22.57
2017-06-09T01:56:12.157Z,22.57
2017-06-09T01:57:22.383Z,22.6
2017-06-09T01:58:32.606Z,22.47
2017-06-09T01:59:42.851Z,22.62
2017-06-09T02:00:52.466Z,22.51
2017-06-09T02:02:02.713Z,22.58
2017-06-09T02:03:12.331Z,22.6
2017-06-09T02:04:22.238Z,22.55
2017-06-09T02:05:31.861Z,22.6
2017-06-09T02:06:42.506Z,22.47
2017-06-09T02:07:52.421Z,22.46
2017-06-09T02:09:02.369Z,22.55
2017-06-09T02:10:12.602Z,22.45
2017-06-09T02:11:22.518Z,22.42
2017-06-09T02:12:32.132Z,22.37
2017-06-09T02:13:41.803Z,22.39
2017-06-09T02:14:51.415Z,22.43
2017-06-09T02:16:01.017Z,22.47
2017-06-09T02:17:10.320Z,22.42
2017-06-09T02:18:19.934Z,22.43
2017-06-09T02:19:29.843Z,22.43
2017-06-09T02:20:39.755Z,22.43
2017-06-09T02:21:49.364Z,22.36
2017-06-09T02:22:58.669Z,22.37
2017-06-09T02:24:08.888Z,22.37
2017-06-09T02:25:18.494Z,22.39
2017-06-09T02:26:28.418Z,22.35
2017-06-09T02:27:38.333Z,22.35
2017-06-09T02:28:48.250Z,22.35
2017-06-09T02:29:58.189Z,22.33
2017-06-09T02:31:08.111Z,22.31
2017-06-09T02:32:17.746Z,22.31
2017-06-09T02:33:27.380Z,22.37
2017-06-09T02:34:37.615Z,22.36
2017-06-09T02:35:47.841Z,22.35
2017-06-09T02:36:57.457Z,22.36
2017-06-09T02:38:07.373Z,22.37
2017-06-09T02:39:17.289Z,22.4
2017-06-09T02:40:27.201Z,22.39
2017-06-09T02:41:37.172Z,22.35
2017-06-09T02:42:47.098Z,22.31
2017-06-09T02:43:56.427Z,22.36
2017-06-09T02:45:06.652Z,22.27
2017-06-09T02:46:15.950Z,22.31
2017-06-09T02:47:25.555Z,22.28
2017-06-09T02:48:35.518Z,22.31
2017-06-09T02:49:45.444Z,22.31
2017-06-09T02:50:55.058Z,22.27
2017-06-09T02:52:04.668Z,22.33
2017-06-09T02:53:14.586Z,22.3
2017-06-09T02:54:23.588Z,22.31
2017-06-09T02:55:33.516Z,22.27
2017-06-09T02:56:43.466Z,22.31
2017-06-09T02:57:53.396Z,22.27
2017-06-09T02:59:03.031Z,22.27
2017-06-09T03:00:12.953Z,22.24
2017-06-09T03:01:22.887Z,22.33
2017-06-09T03:02:33.110Z,22.33
2017-06-09T03:03:43.335Z,22.22
2017-06-09T03:04:52.964Z,22.2
2017-06-09T03:06:02.612Z,22.31
2017-06-09T03:07:12.219Z,22.22
2017-06-09T03:08:21.872Z,22.27
2017-06-09T03:09:31.803Z,22.2
2017-06-09T03:10:41.115Z,22.17
2017-06-09T03:11:51.340Z,22.21
2017-06-09T03:13:01.265Z,22.27
2017-06-09T03:14:10.887Z,22.24
2017-06-09T03:15:21.110Z,22.21
2017-06-09T03:16:31.037Z,22.22
2017-06-09T03:17:41.311Z,22.2
2017-06-09T03:18:51.234Z,22.21
2017-06-09T03:20:01.159Z,22.2
2017-06-09T03:21:10.458Z,22.22
2017-06-09T03:22:19.764Z,22.18
2017-06-09T03:23:29.983Z,22.2
2017-06-09T03:24:39.288Z,22.18
2017-06-09T03:25:49.180Z,22.18
2017-06-09T03:26:58.790Z,22.21
2017-06-09T03:28:08.734Z,22.25
2017-06-09T03:29:18.348Z,22.24
2017-06-09T03:30:27.639Z,22.27
2017-06-09T03:31:37.863Z,22.31
2017-06-09T03:32:46.859Z,22.3
2017-06-09T03:33:56.479Z,22.28
2017-06-09T03:35:06.404Z,22.22
2017-06-09T03:36:16.322Z,22.28
2017-06-09T03:37:26.273Z,22.28
2017-06-09T03:38:36.507Z,22.27
2017-06-09T03:39:45.826Z,22.24
2017-06-09T03:40:55.446Z,22.3
2017-06-09T03:42:05.375Z,22.24
2017-06-09T03:43:15.624Z,22.3
2017-06-09T03:44:25.249Z,22.3
2017-06-09T03:45:35.185Z,22.31
2017-06-09T03:46:44.507Z,22.27
2017-06-09T03:47:53.814Z,22.35
2017-06-09T03:49:04.044Z,22.35
2017-06-09T03:50:14.013Z,22.27
2017-06-09T03:51:23.921Z,22.27
2017-06-09T03:52:33.538Z,22.28
2017-06-09T03:53:43.455Z,22.39
2017-06-09T03:54:53.051Z,22.3
2017-06-09T03:56:03.001Z,22.25
2017-06-09T03:57:13.235Z,22.33
2017-06-09T03:58:22.836Z,22.27
2017-06-09T03:59:33.046Z,22.27
2017-06-09T04:00:42.984Z,22.3
2017-06-09T04:01:52.903Z,22.31
2017-06-09T04:03:02.831Z,22.33
2017-06-09T04:04:12.541Z,22.3
2017-06-09T04:05:22.194Z,22.33
2017-06-09T04:06:32.122Z,22.31
2017-06-09T04:07:41.119Z,22.33
2017-06-09T04:08:50.732Z,22.3
2017-06-09T04:10:00.646Z,22.31
2017-06-09T04:11:09.968Z,22.36
2017-06-09T04:12:19.891Z,22.37
2017-06-09T04:13:29.191Z,22.37
2017-06-09T04:14:38.862Z,22.33
2017-06-09T04:15:48.809Z,22.3
2017-06-09T04:16:58.753Z,22.31
2017-06-09T04:18:08.763Z,22.36
2017-06-09T04:19:18.993Z,22.28
2017-06-09T04:20:28.937Z,22.25
2017-06-09T04:21:38.876Z,22.3
2017-06-09T04:22:48.518Z,22.27
2017-06-09T04:23:58.134Z,22.2
2017-06-09T04:25:07.770Z,22.22
2017-06-09T04:26:17.711Z,22.21
2017-06-09T04:27:27.626Z,22.2
2017-06-09T04:28:36.932Z,22.12
2017-06-09T04:29:47.170Z,22.21
2017-06-09T04:30:57.090Z,22.24
2017-06-09T04:32:07.009Z,22.22
2017-06-09T04:33:16.053Z,22.18
2017-06-09T04:34:25.669Z,22.21
2017-06-09T04:35:35.901Z,22.24
2017-06-09T04:36:45.836Z,22.27
2017-06-09T04:37:55.801Z,22.14
2017-06-09T04:39:05.728Z,22.25
2017-06-09T04:40:15.994Z,22.22
2017-06-09T04:41:25.934Z,22.33
2017-06-09T04:42:35.243Z,22.25
2017-06-09T04:43:45.491Z,22.3
2017-06-09T04:44:55.127Z,22.25
2017-06-09T04:46:05.353Z,22.36
2017-06-09T04:47:14.965Z,22.47
2017-06-09T04:48:24.919Z,22.43
2017-06-09T04:49:35.167Z,22.47
2017-06-09T04:50:44.480Z,22.43
2017-06-09T04:51:53.787Z,22.4
2017-06-09T04:53:03.406Z,22.61
2017-06-09T04:54:13.331Z,22.55
2017-06-09T04:55:23.244Z,22.6
2017-06-09T04:56:33.169Z,22.52
2017-06-09T04:57:43.097Z,22.58
2017-06-09T04:58:53.326Z,22.7
2017-06-09T05:00:03.251Z,22.68
2017-06-09T05:01:13.290Z,22.9
2017-06-09T05:02:22.932Z,22.92
2017-06-09T05:03:33.177Z,23.01
2017-06-09T05:04:42.476Z,23.12
2017-06-09T05:05:52.399Z,23.19
2017-06-09T05:07:02.614Z,23.28
2017-06-09T05:08:12.375Z,23.39
2017-06-09T05:09:22.608Z,23.4
2017-06-09T05:10:32.543Z,23.55
2017-06-09T05:11:42.808Z,23.58
2017-06-09T05:12:52.121Z,23.63
2017-06-09T05:14:02.400Z,23.69
2017-06-09T05:15:12.337Z,23.78
2017-06-09T05:16:53.748Z,23.9
2017-06-09T05:18:03.688Z,23.91
2017-06-09T05:19:13.460Z,23.95
2017-06-09T05:20:23.382Z,24.15
2017-06-09T05:21:33.298Z,24.22
2017-06-09T05:22:43.233Z,24.34
2017-06-09T05:23:52.853Z,24.39
2017-06-09T05:25:02.625Z,24.42
2017-06-09T05:26:11.930Z,24.5
2017-06-09T05:27:21.536Z,24.58
2017-06-09T05:28:31.447Z,24.71
2017-06-09T05:29:41.055Z,24.83
2017-06-09T05:30:50.765Z,24.81
2017-06-09T05:32:00.379Z,24.91
2017-06-09T05:33:09.682Z,25.05
2017-06-09T05:34:19.918Z,25.15
2017-06-09T05:35:29.829Z,25.32
2017-06-09T05:36:40.153Z,25.28
2017-06-09T05:37:50.082Z,25.32
2017-06-09T05:38:59.116Z,25.38
2017-06-09T05:40:08.737Z,25.39
2017-06-09T05:41:18.764Z,25.42
2017-06-09T05:42:28.218Z,25.4
2017-06-09T05:43:38.152Z,25.38
2017-06-09T05:44:48.081Z,25.36
2017-06-09T05:45:58.348Z,25.39
2017-06-09T05:47:08.292Z,25.54
2017-06-09T05:48:18.625Z,25.45
2017-06-09T05:49:28.248Z,25.45
2017-06-09T05:50:38.483Z,25.55
2017-06-09T05:51:47.785Z,25.54
2017-06-09T05:52:57.403Z,25.55
2017-06-09T05:54:07.427Z,25.52
2017-06-09T05:55:16.410Z,25.51
2017-06-09T05:56:26.679Z,25.52
2017-06-09T05:57:36.891Z,25.6
2017-06-09T05:58:46.508Z,25.64
2017-06-09T05:59:56.267Z,25.55
2017-06-09T06:01:06.202Z,25.61
2017-06-09T06:02:16.458Z,25.57
2017-06-09T06:03:26.674Z,25.61
2017-06-09T06:04:36.894Z,25.51
2017-06-09T06:05:47.252Z,25.46
2017-06-09T06:06:56.881Z,25.54
2017-06-09T06:08:06.195Z,25.46
2017-06-09T06:09:16.139Z,25.54
2017-06-09T06:10:26.060Z,25.6
2017-06-09T06:11:35.841Z,25.54
2017-06-09T06:12:46.085Z,25.46
2017-06-09T06:13:55.701Z,25.51
2017-06-09T06:15:04.401Z,25.54
2017-06-09T06:16:14.643Z,25.54
2017-06-09T06:17:24.963Z,25.5
2017-06-09T06:18:34.579Z,25.5
2017-06-09T06:19:44.518Z,25.5
2017-06-09T06:20:54.420Z,25.45
2017-06-09T06:22:04.050Z,25.5
2017-06-09T06:23:13.463Z,25.46
2017-06-09T06:24:22.927Z,25.52
2017-06-09T06:25:32.830Z,25.45
2017-06-09T06:26:42.456Z,25.36
2017-06-09T06:27:52.070Z,25.45
2017-06-09T06:29:01.538Z,25.32
2017-06-09T06:30:11.461Z,25.45
2017-06-09T06:31:21.418Z,25.39
2017-06-09T06:32:31.666Z,25.42
2017-06-09T06:33:41.601Z,25.38
2017-06-09T06:34:51.564Z,25.39
2017-06-09T06:36:00.874Z,25.33
2017-06-09T06:37:10.788Z,25.39
2017-06-09T06:38:20.712Z,25.43
2017-06-09T06:39:30.026Z,25.4
2017-06-09T06:40:40.097Z,25.39
2017-06-09T06:41:49.731Z,25.35
2017-06-09T06:42:59.965Z,25.38
2017-06-09T06:44:09.573Z,25.43
2017-06-09T06:45:18.878Z,25.38
2017-06-09T06:46:28.947Z,25.4
2017-06-09T06:47:38.252Z,25.38
2017-06-09T06:48:48.170Z,25.36
2017-06-09T06:49:57.824Z,25.38
2017-06-09T06:51:07.743Z,25.36
2017-06-09T06:52:18.075Z,25.33
2017-06-09T06:53:27.693Z,25.36
2017-06-09T06:54:37.306Z,25.28
2017-06-09T06:55:47.226Z,25.28
2017-06-09T06:56:57.447Z,25.36
2017-06-09T06:58:06.849Z,25.28
2017-06-09T06:59:16.774Z,25.35
2017-06-09T07:00:26.088Z,25.35
2017-06-09T07:01:36.006Z,25.39
2017-06-09T07:02:45.008Z,25.35
2017-06-09T07:03:54.508Z,25.36
2017-06-09T07:05:04.752Z,25.35
2017-06-09T07:06:14.688Z,25.32
2017-06-09T07:07:24.921Z,25.33
2017-06-09T07:08:35.147Z,25.3
2017-06-09T07:09:45.221Z,25.28
2017-06-09T07:10:55.181Z,25.33
2017-06-09T07:12:05.425Z,25.28
2017-06-09T07:13:15.031Z,25.3
2017-06-09T07:14:24.648Z,25.3
2017-06-09T07:15:34.267Z,25.33
2017-06-09T07:16:43.889Z,25.28
2017-06-09T07:17:53.529Z,25.27
2017-06-09T07:19:03.759Z,25.21
2017-06-09T07:20:13.991Z,25.21
2017-06-09T07:21:23.799Z,25.21
2017-06-09T07:22:33.112Z,25.3
2017-06-09T07:23:42.724Z,25.23
2017-06-09T07:24:52.377Z,25.3
2017-06-09T07:26:02.314Z,25.24
2017-06-09T07:27:12.069Z,25.24
2017-06-09T07:28:22.012Z,25.27
2017-06-09T07:29:31.926Z,25.27
2017-06-09T07:30:41.577Z,25.32
2017-06-09T07:31:51.545Z,25.24
2017-06-09T07:33:01.187Z,25.23
2017-06-09T07:34:11.147Z,25.28
2017-06-09T07:35:21.091Z,25.28
2017-06-09T07:36:31.025Z,25.3
2017-06-09T07:37:40.965Z,25.23
2017-06-09T07:38:50.941Z,25.3
2017-06-09T07:40:00.561Z,25.25
2017-06-09T07:41:10.200Z,25.23
2017-06-09T07:42:20.120Z,25.21
2017-06-09T07:43:30.048Z,25.27
2017-06-09T07:44:39.503Z,25.25
2017-06-09T07:45:49.722Z,25.27
2017-06-09T07:46:59.031Z,25.27
2017-06-09T07:48:09.036Z,25.36
2017-06-09T07:49:19.258Z,25.25
2017-06-09T07:50:29.242Z,25.3
2017-06-09T07:51:38.847Z,25.27
2017-06-09T07:52:48.766Z,25.33
2017-06-09T07:53:58.685Z,25.24
2017-06-09T07:55:08.933Z,25.25
2017-06-09T07:56:18.566Z,25.3
2017-06-09T07:57:28.482Z,25.28
2017-06-09T07:58:37.788Z,25.27
2017-06-09T07:59:47.704Z,25.33
2017-06-09T08:00:57.331Z,25.3
2017-06-09T08:02:07.041Z,25.25
2017-06-09T08:03:16.339Z,25.24
2017-06-09T08:04:26.276Z,25.28
2017-06-09T08:05:35.881Z,25.28
2017-06-09T08:06:45.800Z,25.25
2017-06-09T08:07:56.371Z,25.23
2017-06-09T08:09:06.314Z,25.28
2017-06-09T08:10:16.547Z,25.3
2017-06-09T08:11:26.476Z,25.3
2017-06-09T08:12:36.418Z,25.27
2017-06-09T08:13:46.137Z,25.25
2017-06-09T08:14:55.748Z,25.25
2017-06-09T08:16:05.661Z,25.27
2017-06-09T08:17:15.602Z,25.28
2017-06-09T08:18:25.520Z,25.23
2017-06-09T08:19:35.543Z,25.21
2017-06-09T08:20:45.155Z,25.15
2017-06-09T08:21:55.390Z,25.23
2017-06-09T08:23:05.624Z,25.2
2017-06-09T08:24:15.858Z,25.18
2017-06-09T08:25:26.335Z,25.18
2017-06-09T08:26:35.634Z,25.21
2017-06-09T08:27:45.277Z,25.21
2017-06-09T08:28:55.208Z,25.15
2017-06-09T08:30:04.805Z,25.18
2017-06-09T08:31:14.830Z,25.21
2017-06-09T08:32:24.456Z,25.14
2017-06-09T08:33:33.776Z,25.17
2017-06-09T08:34:43.703Z,25.2
2017-06-09T08:35:53.926Z,25.17
2017-06-09T08:37:03.922Z,25.13
2017-06-09T08:38:13.526Z,25.15
2017-06-09T08:39:23.446Z,25.17
2017-06-09T08:40:33.367Z,25.17
2017-06-09T08:41:42.685Z,25.17
2017-06-09T08:42:51.834Z,25.08
2017-06-09T08:44:01.443Z,25.18
2017-06-09T08:45:11.058Z,25.17
2017-06-09T08:46:20.689Z,25.1
2017-06-09T08:47:30.920Z,25.17
2017-06-09T08:48:40.676Z,25.14
2017-06-09T08:49:49.980Z,25.09
2017-06-09T08:50:59.903Z,25.09
2017-06-09T08:52:10.184Z,25.14
2017-06-09T08:53:20.425Z,25.14
2017-06-09T08:54:30.819Z,25.1
2017-06-09T08:55:40.436Z,25.09
2017-06-09T08:56:50.353Z,25.14
2017-06-09T08:58:00.292Z,25.17
2017-06-09T08:59:09.902Z,25.1
2017-06-09T09:00:20.185Z,25.18
2017-06-09T09:01:30.127Z,25.18
2017-06-09T09:02:40.368Z,25.18
2017-06-09T09:03:50.279Z,25.14
2017-06-09T09:05:00.509Z,25.17
2017-06-09T09:06:10.727Z,25.13
2017-06-09T09:07:20.652Z,25.18
2017-06-09T09:08:30.876Z,25.18
2017-06-09T09:09:40.523Z,25.2
2017-06-09T09:10:50.442Z,25.14
2017-06-09T09:12:00.519Z,25.18
2017-06-09T09:13:09.837Z,25.09
2017-06-09T09:14:19.448Z,25.13
2017-06-09T09:15:29.399Z,25.18
2017-06-09T09:16:39.657Z,25.09
2017-06-09T09:17:49.376Z,25.13
2017-06-09T09:18:59.315Z,25.1
2017-06-09T09:20:09.245Z,25.08
2017-06-09T09:21:19.497Z,25.13
2017-06-09T09:22:29.442Z,25.08
2017-06-09T09:23:39.419Z,25.05
2017-06-09T09:24:49.330Z,25.08
2017-06-09T09:25:58.979Z,25.1
2017-06-09T09:27:08.923Z,25.09
2017-06-09T09:28:18.870Z,25.09
2017-06-09T09:29:28.929Z,25.06
2017-06-09T09:30:38.559Z,25.02
2017-06-09T09:31:48.169Z,25.05
2017-06-09T09:32:58.109Z,25.02
2017-06-09T09:34:08.373Z,25.06
2017-06-09T09:35:18.036Z,25.03
2017-06-09T09:36:27.646Z,25.03
2017-06-09T09:37:37.268Z,25.08
2017-06-09T09:38:46.912Z,24.95
2017-06-09T09:39:56.543Z,24.96
2017-06-09T09:41:05.991Z,24.95
2017-06-09T09:42:15.602Z,25
2017-06-09T09:43:25.841Z,24.93
2017-06-09T09:44:35.763Z,25
2017-06-09T09:45:45.675Z,25
2017-06-09T09:46:55.949Z,24.98
2017-06-09T09:48:05.564Z,24.95
2017-06-09T09:49:14.867Z,24.91
2017-06-09T09:50:24.798Z,24.98
2017-06-09T09:51:34.735Z,25
2017-06-09T09:52:44.803Z,24.93
2017-06-09T09:53:54.440Z,24.9
2017-06-09T09:55:04.087Z,25
2017-06-09T09:56:14.070Z,25.02
2017-06-09T09:57:24.302Z,24.9
2017-06-09T09:58:34.402Z,24.96
2017-06-09T09:59:44.325Z,24.93
2017-06-09T10:00:54.254Z,25
2017-06-09T10:02:03.565Z,24.98
2017-06-09T10:03:13.799Z,24.93
2017-06-09T10:04:23.879Z,25
2017-06-09T10:05:33.182Z,25
2017-06-09T10:06:43.426Z,24.98
2017-06-09T10:07:53.050Z,24.91
2017-06-09T10:09:03.299Z,24.95
2017-06-09T10:10:13.529Z,24.99
2017-06-09T10:11:23.762Z,24.95
2017-06-09T10:12:33.695Z,25.02
2017-06-09T10:13:43.645Z,24.98
2017-06-09T10:14:53.575Z,24.95
2017-06-09T10:16:03.803Z,24.9
2017-06-09T10:17:13.716Z,24.96
2017-06-09T10:18:23.646Z,24.93
2017-06-09T10:19:33.582Z,24.99
2017-06-09T10:20:43.828Z,24.91
2017-06-09T10:21:53.546Z,24.95
2017-06-09T10:23:03.162Z,24.95
2017-06-09T10:24:12.784Z,25
2017-06-09T10:25:22.710Z,24.98
2017-06-09T10:26:32.322Z,24.98
2017-06-09T10:27:41.810Z,24.95
2017-06-09T10:28:51.734Z,25
2017-06-09T10:30:01.382Z,24.95
2017-06-09T10:31:11.328Z,24.96
2017-06-09T10:32:21.561Z,25.06
2017-06-09T10:33:31.197Z,25.06
2017-06-09T10:34:40.524Z,25.08
2017-06-09T10:35:50.747Z,25.08
2017-06-09T10:37:00.691Z,25.15
2017-06-09T10:38:10.010Z,25.06
2017-06-09T10:39:20.092Z,25.08
2017-06-09T10:40:29.716Z,25.09
2017-06-09T10:41:40.004Z,25.09
2017-06-09T10:42:49.926Z,25.14
2017-06-09T10:43:59.553Z,25.08
2017-06-09T10:45:09.935Z,25.08
2017-06-09T10:46:19.860Z,25.14
2017-06-09T10:47:30.105Z,25.14
2017-06-09T10:48:40.024Z,25.17
2017-06-09T10:49:49.350Z,25.18
2017-06-09T10:50:59.742Z,25.17
2017-06-09T10:52:09.680Z,25.15
2017-06-09T10:53:19.291Z,25.18
2017-06-09T10:54:29.212Z,25.21
2017-06-09T10:55:38.828Z,25.17
2017-06-09T10:56:48.437Z,25.17
2017-06-09T10:57:57.447Z,25.2
2017-06-09T10:59:06.783Z,25.23
2017-06-09T11:00:16.718Z,25.18
2017-06-09T11:01:26.664Z,25.28
2017-06-09T11:02:36.740Z,25.32
2017-06-09T11:03:46.970Z,25.23
2017-06-09T11:04:56.886Z,25.21
2017-06-09T11:06:06.195Z,25.24
2017-06-09T11:07:15.808Z,25.21
2017-06-09T11:08:25.253Z,25.25
2017-06-09T11:09:34.556Z,25.28
2017-06-09T11:10:44.173Z,25.25
2017-06-09T11:11:54.399Z,25.24
2017-06-09T11:13:04.335Z,25.28
2017-06-09T11:14:14.368Z,25.33
2017-06-09T11:15:24.606Z,25.33
2017-06-09T11:16:34.861Z,25.33
2017-06-09T11:17:44.804Z,25.25
2017-06-09T11:18:54.746Z,25.3
2017-06-09T11:20:05.343Z,25.28
2017-06-09T11:21:15.262Z,25.24
2017-06-09T11:22:25.202Z,25.28
2017-06-09T11:23:34.825Z,25.27
2017-06-09T11:24:44.444Z,25.23
2017-06-09T11:25:53.927Z,25.24
2017-06-09T11:27:04.145Z,25.23
2017-06-09T11:28:14.080Z,25.32
2017-06-09T11:29:24.000Z,25.25
2017-06-09T11:30:33.915Z,25.23
2017-06-09T11:31:43.520Z,25.27
2017-06-09T11:32:53.730Z,25.27
2017-06-09T11:34:03.659Z,25.24
2017-06-09T11:35:13.883Z,25.27
2017-06-09T11:36:23.220Z,25.27
2017-06-09T11:37:32.991Z,25.24
2017-06-09T11:38:42.899Z,25.3
2017-06-09T11:39:52.525Z,25.3
2017-06-09T11:41:01.816Z,25.33
2017-06-09T11:42:11.738Z,25.33
2017-06-09T11:43:22.075Z,25.27
2017-06-09T11:44:32.301Z,25.33
2017-06-09T11:45:41.911Z,25.4
2017-06-09T11:46:52.152Z,25.36
2017-06-09T11:48:02.090Z,25.36
2017-06-09T11:49:11.807Z,25.39
2017-06-09T11:50:21.421Z,25.39
2017-06-09T11:51:31.656Z,25.36
2017-06-09T11:52:41.875Z,25.51
2017-06-09T11:53:51.486Z,25.43
2017-06-09T11:55:01.812Z,25.45
2017-06-09T11:56:11.418Z,25.47
2017-06-09T11:57:21.651Z,25.36
2017-06-09T11:58:31.590Z,25.43
2017-06-09T11:59:41.566Z,25.46
2017-06-09T12:00:51.633Z,25.47
2017-06-09T12:02:01.568Z,25.42
2017-06-09T12:03:10.871Z,25.38
2017-06-09T12:04:20.855Z,25.36
2017-06-09T12:05:30.802Z,25.39
2017-06-09T12:06:40.283Z,25.38
2017-06-09T12:07:50.211Z,25.38
2017-06-09T12:08:59.871Z,25.32
2017-06-09T12:10:09.843Z,25.32
2017-06-09T12:11:20.174Z,25.33
2017-06-09T12:12:30.496Z,25.23
2017-06-09T12:13:40.533Z,25.28
2017-06-09T12:14:50.174Z,25.25
2017-06-09T12:15:59.878Z,25.25
2017-06-09T12:17:10.165Z,25.28
2017-06-09T12:18:20.238Z,25.3
2017-06-09T12:19:29.243Z,25.28
2017-06-09T12:20:39.149Z,25.23
2017-06-09T12:21:49.181Z,25.15
2017-06-09T12:22:58.971Z,25.18
2017-06-09T12:24:09.143Z,25.2
2017-06-09T12:25:19.056Z,25.18
2017-06-09T12:26:28.664Z,25.18
2017-06-09T12:27:38.292Z,25.14
2017-06-09T12:28:47.953Z,25.18
2017-06-09T12:29:57.718Z,25.13
2017-06-09T12:31:07.358Z,25.23
2017-06-09T12:32:16.393Z,25.17
2017-06-09T12:33:26.626Z,25.08
2017-06-09T12:34:36.602Z,25.21
2017-06-09T12:35:46.892Z,25.1
2017-06-09T12:36:57.134Z,25.09
2017-06-09T12:38:06.465Z,25.15
2017-06-09T12:39:16.097Z,25.15
2017-06-09T12:40:26.049Z,25.09
2017-06-09T12:41:35.994Z,25.06
2017-06-09T12:42:45.619Z,25.05
2017-06-09T12:43:54.958Z,25.08
2017-06-09T12:45:04.655Z,25.13
2017-06-09T12:46:13.978Z,25.05
2017-06-09T12:47:23.910Z,25.05
2017-06-09T12:48:33.522Z,25.08
2017-06-09T12:49:42.569Z,25.09
2017-06-09T12:50:52.822Z,25.08
2017-06-09T12:52:03.079Z,25.14
2017-06-09T12:53:13.095Z,25.08
2017-06-09T12:54:23.032Z,25.05
2017-06-09T12:55:32.370Z,25
2017-06-09T12:56:42.317Z,25.08
2017-06-09T12:57:51.971Z,25.05
2017-06-09T12:59:02.005Z,25.05
2017-06-09T13:00:11.616Z,24.99
2017-06-09T13:01:21.525Z,25.13
2017-06-09T13:02:31.515Z,25.1
2017-06-09T13:03:41.529Z,25.13
2017-06-09T13:04:51.602Z,25.08
2017-06-09T13:06:01.539Z,25.14
2017-06-09T13:07:11.813Z,25.09
2017-06-09T13:08:21.720Z,25.1
2017-06-09T13:09:31.674Z,25.13
2017-06-09T13:10:41.751Z,25.14
2017-06-09T13:11:52.020Z,25.15
2017-06-09T13:13:01.636Z,25.21
2017-06-09T13:14:11.870Z,25.2
2017-06-09T13:15:21.822Z,25.2
2017-06-09T13:16:31.914Z,25.2
2017-06-09T13:17:42.172Z,25.18
2017-06-09T13:18:52.111Z,25.24
2017-06-09T13:20:01.724Z,25.32
2017-06-09T13:21:11.658Z,25.21
2017-06-09T13:22:21.577Z,25.39
2017-06-09T13:23:31.528Z,25.35
2017-06-09T13:24:41.192Z,25.28
2017-06-09T13:25:51.105Z,25.32
2017-06-09T13:27:00.711Z,25.28
2017-06-09T13:28:11.072Z,25.36
2017-06-09T13:29:20.685Z,25.28
2017-06-09T13:30:30.335Z,25.35
2017-06-09T13:31:40.261Z,25.32
2017-06-09T13:32:50.222Z,25.28
2017-06-09T13:34:00.159Z,25.3
2017-06-09T13:35:09.813Z,25.35
2017-06-09T13:36:20.084Z,25.33
2017-06-09T13:37:29.383Z,25.28
2017-06-09T13:38:39.607Z,25.33
2017-06-09T13:39:49.327Z,25.39
2017-06-09T13:40:59.913Z,25.39
2017-06-09T13:42:09.844Z,25.27
2017-06-09T13:43:19.777Z,25.35
2017-06-09T13:44:30.009Z,25.33
2017-06-09T13:45:40.029Z,25.28
2017-06-09T13:46:49.977Z,25.33
2017-06-09T13:47:59.906Z,25.38
2017-06-09T13:49:09.813Z,25.3
2017-06-09T13:50:20.043Z,25.28
2017-06-09T13:51:29.819Z,25.33
2017-06-09T13:52:39.754Z,25.3
2017-06-09T13:53:49.690Z,25.28
2017-06-09T13:54:59.306Z,25.33
2017-06-09T13:56:09.548Z,25.35
2017-06-09T13:57:19.528Z,25.28
2017-06-09T13:58:29.467Z,25.35
2017-06-09T13:59:39.708Z,25.33
2017-06-09T14:00:49.335Z,25.32
2017-06-09T14:01:58.639Z,25.3
2017-06-09T14:03:08.388Z,25.28
2017-06-09T14:04:18.611Z,25.3
2017-06-09T14:05:28.822Z,25.3
2017-06-09T14:06:38.426Z,25.33
2017-06-09T14:07:48.350Z,25.3
2017-06-09T14:08:58.308Z,25.28
2017-06-09T14:10:08.222Z,25.35
2017-06-09T14:11:18.148Z,25.27
2017-06-09T14:12:27.460Z,25.39
2017-06-09T14:13:37.693Z,25.24
2017-06-09T14:14:47.768Z,25.28
2017-06-09T14:15:57.694Z,25.35
2017-06-09T14:17:07.305Z,25.3
2017-06-09T14:18:17.225Z,25.35
2017-06-09T14:19:26.857Z,25.32
2017-06-09T14:20:36.918Z,25.35
2017-06-09T14:21:47.157Z,25.35
2017-06-09T14:22:56.780Z,25.32
2017-06-09T14:24:06.423Z,25.39
2017-06-09T14:25:15.732Z,25.35
2017-06-09T14:26:25.947Z,25.35
2017-06-09T14:27:36.179Z,25.33
2017-06-09T14:28:46.398Z,25.35
2017-06-09T14:29:56.010Z,25.32
2017-06-09T14:31:06.245Z,25.3
2017-06-09T14:32:16.301Z,25.32
2017-06-09T14:33:25.895Z,25.32
2017-06-09T14:34:35.810Z,25.38
2017-06-09T14:35:46.036Z,25.36
2017-06-09T14:36:55.348Z,25.35
2017-06-09T14:38:05.381Z,25.32
2017-06-09T14:39:14.997Z,25.39
2017-06-09T14:40:24.915Z,25.3
2017-06-09T14:41:34.850Z,25.28
2017-06-09T14:42:44.166Z,25.38
2017-06-09T14:43:53.896Z,25.32
2017-06-09T14:45:04.130Z,25.27
2017-06-09T14:46:13.746Z,25.27
2017-06-09T14:47:23.983Z,25.35
2017-06-09T14:48:33.894Z,25.27
2017-06-09T14:49:43.608Z,25.3
2017-06-09T14:50:53.530Z,25.3
2017-06-09T14:52:03.452Z,25.33
2017-06-09T14:53:13.383Z,25.35
2017-06-09T14:54:23.021Z,25.32
2017-06-09T14:55:33.059Z,25.3
2017-06-09T14:56:42.973Z,25.36
2017-06-09T14:57:52.902Z,25.4
2017-06-09T14:59:02.519Z,25.35
2017-06-09T15:00:12.127Z,25.32
2017-06-09T15:01:21.777Z,25.33
2017-06-09T15:02:31.998Z,25.45
2017-06-09T15:03:41.919Z,25.36
2017-06-09T15:04:51.530Z,25.42
2017-06-09T15:06:01.438Z,25.38